sensor_id;sensor_type;location;lat;lon;timestamp;temperature;humidity
24382;DHT22;12502;50.678;7.172;2023-09-19T00:03:06;15.00;99.90
24382;DHT22;12502;50.678;7.172;2023-09-19T00:08:08;15.00;99.90
24382;DHT22;12502;50.678;7.172;2023-09-19T00:13:23;15.00;99.90
24382;DHT22;12502;50.678;7.172;2023-09-19T00:18:37;15.00;99.90
24382;DHT22;12502;50.678;7.172;2023-09-19T00:23:41;14.90;99.90
24382;DHT22;12502;50.678;7.172;2023-09-19T00:28:43;14.80;99.90
24382;DHT22;12502;50.678;7.172;2023-09-19T00:33:46;14.70;99.90
24382;DHT22;12502;50.678;7.172;2023-09-19T00:38:51;14.70;99.90
24382;DHT22;12502;50.678;7.172;2023-09-19T00:43:53;14.80;99.90
24382;DHT22;12502;50.678;7.172;2023-09-19T00:48:55;14.80;99.90
24382;DHT22;12502;50.678;7.172;2023-09-19T00:54:04;14.70;99.90
24382;DHT22;12502;50.678;7.172;2023-09-19T00:59:07;14.50;99.90
24382;DHT22;12502;50.678;7.172;2023-09-19T01:10:16;14.50;99.90
24382;DHT22;12502;50.678;7.172;2023-09-19T01:15:28;14.50;99.90
24382;DHT22;12502;50.678;7.172;2023-09-19T01:30:57;14.90;99.90
24382;DHT22;12502;50.678;7.172;2023-09-19T01:36:11;15.00;99.90
24382;DHT22;12502;50.678;7.172;2023-09-19T01:41:26;15.20;99.90
24382;DHT22;12502;50.678;7.172;2023-09-19T01:46:30;15.10;99.90
24382;DHT22;12502;50.678;7.172;2023-09-19T01:57:01;15.20;99.90
24382;DHT22;12502;50.678;7.172;2023-09-19T02:02:06;15.20;99.90
24382;DHT22;12502;50.678;7.172;2023-09-19T02:07:22;15.20;99.90
24382;DHT22;12502;50.678;7.172;2023-09-19T02:17:32;15.20;99.90
24382;DHT22;12502;50.678;7.172;2023-09-19T02:22:41;15.00;99.90
24382;DHT22;12502;50.678;7.172;2023-09-19T02:27:45;14.90;99.90
24382;DHT22;12502;50.678;7.172;2023-09-19T02:32:49;14.80;99.90
24382;DHT22;12502;50.678;7.172;2023-09-19T02:37:52;14.80;99.90
24382;DHT22;12502;50.678;7.172;2023-09-19T02:42:54;14.70;99.90
24382;DHT22;12502;50.678;7.172;2023-09-19T02:47:56;14.70;99.90
24382;DHT22;12502;50.678;7.172;2023-09-19T02:52:59;14.80;99.90
24382;DHT22;12502;50.678;7.172;2023-09-19T02:58:01;14.60;99.90
24382;DHT22;12502;50.678;7.172;2023-09-19T03:03:04;14.60;99.90
24382;DHT22;12502;50.678;7.172;2023-09-19T03:08:10;14.60;99.90
24382;DHT22;12502;50.678;7.172;2023-09-19T03:13:12;14.30;99.90
24382;DHT22;12502;50.678;7.172;2023-09-19T03:18:14;14.40;99.90
24382;DHT22;12502;50.678;7.172;2023-09-19T03:23:16;14.40;99.90
24382;DHT22;12502;50.678;7.172;2023-09-19T03:28:18;14.30;99.90
24382;DHT22;12502;50.678;7.172;2023-09-19T03:33:22;14.20;99.90
24382;DHT22;12502;50.678;7.172;2023-09-19T03:38:25;14.20;99.90
24382;DHT22;12502;50.678;7.172;2023-09-19T03:43:27;14.10;99.90
24382;DHT22;12502;50.678;7.172;2023-09-19T03:48:29;14.10;99.90
24382;DHT22;12502;50.678;7.172;2023-09-19T03:53:31;14.10;99.90
24382;DHT22;12502;50.678;7.172;2023-09-19T03:58:33;14.10;99.90
24382;DHT22;12502;50.678;7.172;2023-09-19T04:03:36;14.10;99.90
24382;DHT22;12502;50.678;7.172;2023-09-19T04:08:48;14.10;99.90
24382;DHT22;12502;50.678;7.172;2023-09-19T04:13:50;14.10;99.90
24382;DHT22;12502;50.678;7.172;2023-09-19T04:18:52;14.00;99.90
24382;DHT22;12502;50.678;7.172;2023-09-19T04:23:54;14.00;99.90
24382;DHT22;12502;50.678;7.172;2023-09-19T04:28:55;14.00;99.90
24382;DHT22;12502;50.678;7.172;2023-09-19T04:33:58;14.00;99.90
24382;DHT22;12502;50.678;7.172;2023-09-19T04:39:06;14.00;99.90
24382;DHT22;12502;50.678;7.172;2023-09-19T04:44:10;14.00;99.90
24382;DHT22;12502;50.678;7.172;2023-09-19T04:49:12;14.00;99.90
24382;DHT22;12502;50.678;7.172;2023-09-19T04:54:14;14.10;99.90
24382;DHT22;12502;50.678;7.172;2023-09-19T04:59:16;14.00;99.90
24382;DHT22;12502;50.678;7.172;2023-09-19T05:15:04;14.00;99.90
24382;DHT22;12502;50.678;7.172;2023-09-19T05:20:06;13.90;99.90
24382;DHT22;12502;50.678;7.172;2023-09-19T05:25:15;13.90;99.90
24382;DHT22;12502;50.678;7.172;2023-09-19T05:30:19;13.70;99.90
24382;DHT22;12502;50.678;7.172;2023-09-19T05:35:21;13.70;99.90
24382;DHT22;12502;50.678;7.172;2023-09-19T05:40:24;13.60;99.90
24382;DHT22;12502;50.678;7.172;2023-09-19T05:45:26;13.60;99.90
24382;DHT22;12502;50.678;7.172;2023-09-19T05:50:29;13.70;99.90
24382;DHT22;12502;50.678;7.172;2023-09-19T05:55:31;13.70;99.90
24382;DHT22;12502;50.678;7.172;2023-09-19T06:00:32;13.80;99.90
24382;DHT22;12502;50.678;7.172;2023-09-19T06:05:36;13.90;99.90
24382;DHT22;12502;50.678;7.172;2023-09-19T06:10:41;14.00;99.90
24382;DHT22;12502;50.678;7.172;2023-09-19T06:15:42;14.10;99.90
24382;DHT22;12502;50.678;7.172;2023-09-19T06:20:46;14.10;99.90
24382;DHT22;12502;50.678;7.172;2023-09-19T06:25:49;14.10;99.90
24382;DHT22;12502;50.678;7.172;2023-09-19T06:30:50;14.20;99.90
24382;DHT22;12502;50.678;7.172;2023-09-19T06:35:52;14.20;99.90
24382;DHT22;12502;50.678;7.172;2023-09-19T06:41:00;14.30;99.90
24382;DHT22;12502;50.678;7.172;2023-09-19T06:46:03;14.40;99.90
24382;DHT22;12502;50.678;7.172;2023-09-19T06:51:07;14.40;99.90
24382;DHT22;12502;50.678;7.172;2023-09-19T06:56:09;14.40;99.90
24382;DHT22;12502;50.678;7.172;2023-09-19T07:01:11;14.50;99.90
24382;DHT22;12502;50.678;7.172;2023-09-19T07:06:16;14.50;99.90
24382;DHT22;12502;50.678;7.172;2023-09-19T07:11:19;14.60;99.90
24382;DHT22;12502;50.678;7.172;2023-09-19T07:16:21;14.70;99.90
24382;DHT22;12502;50.678;7.172;2023-09-19T07:21:31;15.00;99.90
24382;DHT22;12502;50.678;7.172;2023-09-19T07:26:37;15.00;99.90
24382;DHT22;12502;50.678;7.172;2023-09-19T07:31:38;15.00;99.90
24382;DHT22;12502;50.678;7.172;2023-09-19T07:36:40;15.10;99.90
24382;DHT22;12502;50.678;7.172;2023-09-19T07:41:43;15.30;99.90
24382;DHT22;12502;50.678;7.172;2023-09-19T07:46:45;15.30;99.90
24382;DHT22;12502;50.678;7.172;2023-09-19T07:51:46;15.40;99.90
24382;DHT22;12502;50.678;7.172;2023-09-19T07:56:48;15.50;99.90
24382;DHT22;12502;50.678;7.172;2023-09-19T08:01:50;15.60;99.90
24382;DHT22;12502;50.678;7.172;2023-09-19T08:06:51;15.80;99.90
24382;DHT22;12502;50.678;7.172;2023-09-19T08:11:53;15.90;99.90
24382;DHT22;12502;50.678;7.172;2023-09-19T08:16:58;16.10;99.90
24382;DHT22;12502;50.678;7.172;2023-09-19T08:22:00;16.20;99.90
24382;DHT22;12502;50.678;7.172;2023-09-19T08:27:03;16.20;99.90
24382;DHT22;12502;50.678;7.172;2023-09-19T08:32:06;16.40;99.90
24382;DHT22;12502;50.678;7.172;2023-09-19T08:37:07;16.50;99.90
24382;DHT22;12502;50.678;7.172;2023-09-19T08:42:11;16.50;99.90
24382;DHT22;12502;50.678;7.172;2023-09-19T08:47:15;16.70;99.90
24382;DHT22;12502;50.678;7.172;2023-09-19T08:52:22;16.90;99.90
24382;DHT22;12502;50.678;7.172;2023-09-19T08:57:26;17.00;99.90
24382;DHT22;12502;50.678;7.172;2023-09-19T09:02:30;17.00;99.90
24382;DHT22;12502;50.678;7.172;2023-09-19T09:07:36;17.10;99.90
24382;DHT22;12502;50.678;7.172;2023-09-19T09:12:38;17.20;99.90
24382;DHT22;12502;50.678;7.172;2023-09-19T09:17:42;17.20;99.90
24382;DHT22;12502;50.678;7.172;2023-09-19T09:22:54;17.40;99.90
24382;DHT22;12502;50.678;7.172;2023-09-19T09:28:00;17.40;99.90
24382;DHT22;12502;50.678;7.172;2023-09-19T09:33:10;17.50;99.90
24382;DHT22;12502;50.678;7.172;2023-09-19T09:38:13;17.60;99.90
24382;DHT22;12502;50.678;7.172;2023-09-19T09:48:31;17.90;99.90
24382;DHT22;12502;50.678;7.172;2023-09-19T09:53:33;17.80;99.90
24382;DHT22;12502;50.678;7.172;2023-09-19T09:58:49;17.90;99.90
24382;DHT22;12502;50.678;7.172;2023-09-19T10:03:51;18.00;99.90
24382;DHT22;12502;50.678;7.172;2023-09-19T10:09:08;18.10;99.90
24382;DHT22;12502;50.678;7.172;2023-09-19T10:14:16;18.40;99.90
24382;DHT22;12502;50.678;7.172;2023-09-19T10:19:29;18.40;99.90
24382;DHT22;12502;50.678;7.172;2023-09-19T10:24:33;18.30;99.90
24382;DHT22;12502;50.678;7.172;2023-09-19T10:29:39;18.30;99.90
24382;DHT22;12502;50.678;7.172;2023-09-19T10:34:40;18.20;99.90
24382;DHT22;12502;50.678;7.172;2023-09-19T10:39:46;18.40;99.90
24382;DHT22;12502;50.678;7.172;2023-09-19T10:44:51;18.50;99.90
24382;DHT22;12502;50.678;7.172;2023-09-19T10:49:55;18.50;99.90
24382;DHT22;12502;50.678;7.172;2023-09-19T10:54:57;18.50;99.90
24382;DHT22;12502;50.678;7.172;2023-09-19T11:00:04;18.80;99.90
24382;DHT22;12502;50.678;7.172;2023-09-19T11:05:23;18.80;99.90
24382;DHT22;12502;50.678;7.172;2023-09-19T12:08:59;19.70;99.90
24382;DHT22;12502;50.678;7.172;2023-09-19T12:14:08;19.60;99.90
24382;DHT22;12502;50.678;7.172;2023-09-19T12:19:21;19.60;99.90
24382;DHT22;12502;50.678;7.172;2023-09-19T12:24:29;19.80;99.90
24382;DHT22;12502;50.678;7.172;2023-09-19T12:29:54;20.00;99.90
24382;DHT22;12502;50.678;7.172;2023-09-19T12:35:07;20.10;99.90
24382;DHT22;12502;50.678;7.172;2023-09-19T12:40:12;20.20;99.90
24382;DHT22;12502;50.678;7.172;2023-09-19T12:45:24;20.00;99.90
24382;DHT22;12502;50.678;7.172;2023-09-19T12:50:29;20.30;99.90
24382;DHT22;12502;50.678;7.172;2023-09-19T12:55:32;20.40;99.90
24382;DHT22;12502;50.678;7.172;2023-09-19T13:00:44;20.50;99.90
24382;DHT22;12502;50.678;7.172;2023-09-19T13:05:50;20.50;99.90
24382;DHT22;12502;50.678;7.172;2023-09-19T13:11:04;20.70;99.90
24382;DHT22;12502;50.678;7.172;2023-09-19T13:16:11;20.70;99.90
24382;DHT22;12502;50.678;7.172;2023-09-19T13:26:34;20.70;99.90
24382;DHT22;12502;50.678;7.172;2023-09-19T13:31:36;21.10;99.90
24382;DHT22;12502;50.678;7.172;2023-09-19T13:36:43;20.70;99.90
24382;DHT22;12502;50.678;7.172;2023-09-19T13:41:45;20.60;99.90
24382;DHT22;12502;50.678;7.172;2023-09-19T13:46:48;20.50;99.90
24382;DHT22;12502;50.678;7.172;2023-09-19T13:51:52;20.80;99.90
24382;DHT22;12502;50.678;7.172;2023-09-19T13:56:56;20.90;99.90
24382;DHT22;12502;50.678;7.172;2023-09-19T14:01:58;20.90;99.90
24382;DHT22;12502;50.678;7.172;2023-09-19T14:07:01;20.90;99.90
24382;DHT22;12502;50.678;7.172;2023-09-19T14:12:03;21.00;99.90
24382;DHT22;12502;50.678;7.172;2023-09-19T14:17:06;21.10;99.90
24382;DHT22;12502;50.678;7.172;2023-09-19T14:27:16;21.10;99.90
24382;DHT22;12502;50.678;7.172;2023-09-19T14:32:19;21.00;99.90
24382;DHT22;12502;50.678;7.172;2023-09-19T14:37:21;20.80;99.90
24382;DHT22;12502;50.678;7.172;2023-09-19T14:42:25;20.70;99.90
24382;DHT22;12502;50.678;7.172;2023-09-19T14:47:27;21.00;99.90
24382;DHT22;12502;50.678;7.172;2023-09-19T14:52:30;20.90;99.90
24382;DHT22;12502;50.678;7.172;2023-09-19T14:57:40;21.00;99.90
24382;DHT22;12502;50.678;7.172;2023-09-19T15:02:43;21.00;99.90
24382;DHT22;12502;50.678;7.172;2023-09-19T15:07:49;20.90;99.90
24382;DHT22;12502;50.678;7.172;2023-09-19T15:12:58;21.00;99.90
24382;DHT22;12502;50.678;7.172;2023-09-19T15:18:00;20.90;99.90
24382;DHT22;12502;50.678;7.172;2023-09-19T15:23:05;20.90;99.90
24382;DHT22;12502;50.678;7.172;2023-09-19T15:28:07;20.70;99.90
24382;DHT22;12502;50.678;7.172;2023-09-19T15:33:11;20.70;99.90
24382;DHT22;12502;50.678;7.172;2023-09-19T15:38:13;20.70;99.90
24382;DHT22;12502;50.678;7.172;2023-09-19T15:43:16;20.80;99.90
24382;DHT22;12502;50.678;7.172;2023-09-19T15:48:23;20.70;99.90
24382;DHT22;12502;50.678;7.172;2023-09-19T15:53:29;20.50;99.90
24382;DHT22;12502;50.678;7.172;2023-09-19T15:58:35;20.30;99.90
24382;DHT22;12502;50.678;7.172;2023-09-19T16:03:45;20.20;99.90
24382;DHT22;12502;50.678;7.172;2023-09-19T16:08:48;20.20;99.90
24382;DHT22;12502;50.678;7.172;2023-09-19T16:13:51;20.20;99.90
24382;DHT22;12502;50.678;7.172;2023-09-19T16:18:53;20.00;99.90
24382;DHT22;12502;50.678;7.172;2023-09-19T16:24:01;20.00;99.90
24382;DHT22;12502;50.678;7.172;2023-09-19T16:29:03;19.90;99.90
24382;DHT22;12502;50.678;7.172;2023-09-19T16:34:06;20.00;99.90
24382;DHT22;12502;50.678;7.172;2023-09-19T16:39:08;20.00;99.90
24382;DHT22;12502;50.678;7.172;2023-09-19T16:44:10;19.90;99.90
24382;DHT22;12502;50.678;7.172;2023-09-19T16:49:16;19.90;99.90
24382;DHT22;12502;50.678;7.172;2023-09-19T16:54:18;19.80;99.90
24382;DHT22;12502;50.678;7.172;2023-09-19T16:59:20;19.70;99.90
24382;DHT22;12502;50.678;7.172;2023-09-19T17:04:25;19.60;99.90
24382;DHT22;12502;50.678;7.172;2023-09-19T17:09:26;19.40;99.90
24382;DHT22;12502;50.678;7.172;2023-09-19T17:14:28;19.40;99.90
24382;DHT22;12502;50.678;7.172;2023-09-19T17:19:31;19.40;99.90
24382;DHT22;12502;50.678;7.172;2023-09-19T17:24:34;19.30;99.90
24382;DHT22;12502;50.678;7.172;2023-09-19T17:29:35;19.20;99.90
24382;DHT22;12502;50.678;7.172;2023-09-19T17:34:37;19.10;99.90
24382;DHT22;12502;50.678;7.172;2023-09-19T17:39:40;19.10;99.90
24382;DHT22;12502;50.678;7.172;2023-09-19T17:44:42;19.00;99.90
24382;DHT22;12502;50.678;7.172;2023-09-19T17:49:43;18.80;99.90
24382;DHT22;12502;50.678;7.172;2023-09-19T17:54:45;18.60;99.90
24382;DHT22;12502;50.678;7.172;2023-09-19T17:59:47;18.70;99.90
24382;DHT22;12502;50.678;7.172;2023-09-19T18:04:49;18.70;99.90
24382;DHT22;12502;50.678;7.172;2023-09-19T18:09:51;18.60;99.90
24382;DHT22;12502;50.678;7.172;2023-09-19T18:14:52;18.60;99.90
24382;DHT22;12502;50.678;7.172;2023-09-19T18:19:54;18.50;99.90
24382;DHT22;12502;50.678;7.172;2023-09-19T18:24:56;18.50;99.90
24382;DHT22;12502;50.678;7.172;2023-09-19T18:29:58;18.50;99.90
24382;DHT22;12502;50.678;7.172;2023-09-19T18:34:59;18.40;99.90
24382;DHT22;12502;50.678;7.172;2023-09-19T18:40:02;18.30;99.90
24382;DHT22;12502;50.678;7.172;2023-09-19T18:45:04;18.20;99.90
24382;DHT22;12502;50.678;7.172;2023-09-19T18:50:06;18.20;99.90
24382;DHT22;12502;50.678;7.172;2023-09-19T18:55:13;18.20;99.90
24382;DHT22;12502;50.678;7.172;2023-09-19T19:00:16;18.00;99.90
24382;DHT22;12502;50.678;7.172;2023-09-19T19:05:18;18.00;99.90
24382;DHT22;12502;50.678;7.172;2023-09-19T19:10:19;18.00;99.90
24382;DHT22;12502;50.678;7.172;2023-09-19T19:15:21;18.00;99.90
24382;DHT22;12502;50.678;7.172;2023-09-19T19:20:24;18.00;99.90
24382;DHT22;12502;50.678;7.172;2023-09-19T19:25:26;18.00;99.90
24382;DHT22;12502;50.678;7.172;2023-09-19T19:30:28;18.00;99.90
24382;DHT22;12502;50.678;7.172;2023-09-19T19:35:30;18.00;99.90
24382;DHT22;12502;50.678;7.172;2023-09-19T19:40:34;18.10;99.90
24382;DHT22;12502;50.678;7.172;2023-09-19T19:45:36;18.10;99.90
24382;DHT22;12502;50.678;7.172;2023-09-19T19:50:38;18.20;99.90
24382;DHT22;12502;50.678;7.172;2023-09-19T19:55:39;18.20;99.90
24382;DHT22;12502;50.678;7.172;2023-09-19T20:00:41;18.10;99.90
24382;DHT22;12502;50.678;7.172;2023-09-19T20:05:44;18.20;99.90
24382;DHT22;12502;50.678;7.172;2023-09-19T20:10:49;18.20;99.90
24382;DHT22;12502;50.678;7.172;2023-09-19T20:15:54;18.20;99.90
24382;DHT22;12502;50.678;7.172;2023-09-19T20:20:56;18.20;99.90
24382;DHT22;12502;50.678;7.172;2023-09-19T20:26:00;18.20;99.90
24382;DHT22;12502;50.678;7.172;2023-09-19T20:31:08;18.30;99.90
24382;DHT22;12502;50.678;7.172;2023-09-19T20:36:10;18.30;99.90
24382;DHT22;12502;50.678;7.172;2023-09-19T20:41:13;18.30;99.90
24382;DHT22;12502;50.678;7.172;2023-09-19T20:46:15;18.30;99.90
24382;DHT22;12502;50.678;7.172;2023-09-19T20:51:17;18.20;99.90
24382;DHT22;12502;50.678;7.172;2023-09-19T20:56:26;18.30;99.90
24382;DHT22;12502;50.678;7.172;2023-09-19T21:01:28;18.30;99.90
24382;DHT22;12502;50.678;7.172;2023-09-19T21:06:31;18.30;99.90
24382;DHT22;12502;50.678;7.172;2023-09-19T21:11:32;18.30;99.90
24382;DHT22;12502;50.678;7.172;2023-09-19T21:16:34;18.20;99.90
24382;DHT22;12502;50.678;7.172;2023-09-19T21:21:36;18.20;99.90
24382;DHT22;12502;50.678;7.172;2023-09-19T21:26:37;18.20;99.90
24382;DHT22;12502;50.678;7.172;2023-09-19T21:31:39;18.30;99.90
24382;DHT22;12502;50.678;7.172;2023-09-19T21:36:42;18.30;99.90
24382;DHT22;12502;50.678;7.172;2023-09-19T21:41:43;18.30;99.90
24382;DHT22;12502;50.678;7.172;2023-09-19T21:46:45;18.30;99.90
24382;DHT22;12502;50.678;7.172;2023-09-19T21:51:47;18.20;99.90
24382;DHT22;12502;50.678;7.172;2023-09-19T21:56:49;18.20;99.90
24382;DHT22;12502;50.678;7.172;2023-09-19T22:01:50;18.20;99.90
24382;DHT22;12502;50.678;7.172;2023-09-19T22:06:53;18.20;99.90
24382;DHT22;12502;50.678;7.172;2023-09-19T22:11:55;18.20;99.90
24382;DHT22;12502;50.678;7.172;2023-09-19T22:17:00;18.20;99.90
24382;DHT22;12502;50.678;7.172;2023-09-19T22:22:02;18.20;99.90
24382;DHT22;12502;50.678;7.172;2023-09-19T22:27:09;18.20;99.90
24382;DHT22;12502;50.678;7.172;2023-09-19T22:32:13;18.10;99.90
24382;DHT22;12502;50.678;7.172;2023-09-19T22:37:15;18.20;99.90
24382;DHT22;12502;50.678;7.172;2023-09-19T22:42:17;18.20;99.90
24382;DHT22;12502;50.678;7.172;2023-09-19T22:47:21;18.20;99.90
24382;DHT22;12502;50.678;7.172;2023-09-19T22:52:24;18.10;99.90
24382;DHT22;12502;50.678;7.172;2023-09-19T22:57:27;18.00;99.90
24382;DHT22;12502;50.678;7.172;2023-09-19T23:02:29;18.10;99.90
24382;DHT22;12502;50.678;7.172;2023-09-19T23:07:31;18.00;99.90
24382;DHT22;12502;50.678;7.172;2023-09-19T23:12:33;17.90;99.90
24382;DHT22;12502;50.678;7.172;2023-09-19T23:17:35;17.80;99.90
24382;DHT22;12502;50.678;7.172;2023-09-19T23:22:38;17.80;99.90
24382;DHT22;12502;50.678;7.172;2023-09-19T23:27:42;17.70;99.90
24382;DHT22;12502;50.678;7.172;2023-09-19T23:32:48;17.70;99.90
24382;DHT22;12502;50.678;7.172;2023-09-19T23:37:49;17.70;99.90
24382;DHT22;12502;50.678;7.172;2023-09-19T23:42:52;17.70;99.90
24382;DHT22;12502;50.678;7.172;2023-09-19T23:47:55;17.60;99.90
24382;DHT22;12502;50.678;7.172;2023-09-19T23:52:57;17.60;99.90
24382;DHT22;12502;50.678;7.172;2023-09-19T23:58:02;17.50;99.90
